Frankenstein, Missouri
Current Conditions -  °F | °C
As of 10:53 PM on Tuesday 25 Nov 2014 (Local Time) from KJEF Reporting Station
Clear Clear  
Wind Chill: 18°   Ceiling: Unl
Heat Index: 24°   Visibility: 10mi
Dew Point: 19°   Wind: 5mph
Humidity: 81%   Direction: 130°SE
Pressure: 30.14"   Gusts: NA
Location:  38.559°N, 91.9214°W
Report Text: KJEF 260453Z AUTO 13004KT 10SM CLR M04/M07 A3014 RMK AO2 SLP200 T10441072
Loading
Personal Weather Stations






























Interactive Weather Map New forecast layout! Learn more

10-Day Weather Forecast

Advertisements
Track Severe Weather on mobile